createdAt,value
2019-03-13T00:03:19.305Z,2.85
2019-03-13T00:08:34.138Z,3.03
2019-03-13T00:13:45.843Z,3.50
2019-03-13T00:19:03.757Z,3.40
2019-03-13T00:24:28.881Z,3.37
2019-03-13T00:29:46.825Z,3.73
2019-03-13T00:35:29.920Z,4.10
2019-03-13T00:40:16.196Z,4.37
2019-03-13T00:45:30.707Z,3.40
2019-03-13T00:50:59.118Z,4.00
2019-03-13T00:55:59.848Z,3.80
2019-03-13T01:01:50.943Z,4.03
2019-03-13T01:07:21.062Z,3.83
2019-03-13T01:12:26.380Z,4.67
2019-03-13T01:17:53.652Z,3.87
2019-03-13T01:23:31.171Z,4.37
2019-03-13T01:28:41.578Z,3.77
2019-03-13T01:39:55.038Z,5.00
2019-03-13T01:45:07.852Z,4.90
2019-03-13T01:50:31.704Z,4.73
2019-03-13T01:55:34.711Z,4.07
2019-03-13T02:00:59.335Z,3.93
2019-03-13T02:06:10.247Z,3.83
2019-03-13T02:11:35.022Z,3.03
2019-03-13T02:17:16.550Z,2.97
2019-03-13T02:22:47.842Z,3.07
2019-03-13T02:27:57.878Z,3.03
2019-03-13T02:33:29.735Z,3.40
2019-03-13T02:38:48.119Z,3.23
2019-03-13T02:44:04.632Z,3.00
2019-03-13T02:49:54.296Z,2.70
2019-03-13T02:54:46.960Z,2.63
2019-03-13T03:00:08.179Z,2.77
2019-03-13T03:05:23.851Z,3.47
2019-03-13T03:15:47.998Z,3.43
2019-03-13T03:21:03.233Z,3.27
2019-03-13T03:26:10.621Z,3.20
2019-03-13T03:31:42.442Z,3.23
2019-03-13T03:37:14.219Z,2.53
2019-03-13T03:42:32.046Z,2.80
2019-03-13T03:47:58.691Z,3.20
2019-03-13T03:53:31.938Z,3.03
2019-03-13T03:58:56.312Z,2.70
2019-03-13T04:04:12.828Z,3.17
2019-03-13T04:09:33.563Z,3.00
2019-03-13T04:15:06.522Z,2.93
2019-03-13T04:20:47.519Z,3.50
2019-03-13T04:26:26.095Z,3.60
2019-03-13T04:32:00.149Z,3.10
2019-03-13T04:48:05.686Z,3.80
2019-03-13T04:53:33.746Z,3.37
2019-03-13T04:58:43.797Z,3.73
2019-03-13T05:04:07.321Z,3.80
2019-03-13T05:09:19.833Z,4.90
2019-03-13T05:14:38.942Z,4.47
2019-03-13T05:20:37.551Z,3.40
2019-03-13T05:25:27.077Z,4.03
2019-03-13T05:30:38.869Z,3.93
2019-03-13T05:35:48.818Z,3.90
2019-03-13T05:41:29.740Z,4.67
2019-03-13T05:46:49.393Z,3.97
2019-03-13T05:52:15.465Z,4.73
2019-03-13T05:57:23.378Z,3.93
2019-03-13T06:02:34.642Z,4.63
2019-03-13T06:07:59.508Z,4.70
2019-03-13T06:13:14.726Z,3.87
2019-03-13T06:18:32.935Z,3.93
2019-03-13T06:23:50.018Z,3.77
2019-03-13T06:29:03.494Z,4.30
2019-03-13T06:34:20.033Z,4.27
2019-03-13T06:39:32.806Z,5.13
2019-03-13T06:44:58.976Z,5.10
2019-03-13T06:50:16.292Z,6.57
2019-03-13T06:55:55.846Z,5.73
2019-03-13T07:07:10.015Z,5.73
2019-03-13T07:12:59.949Z,4.17
2019-03-13T07:18:29.995Z,5.37
2019-03-13T07:23:41.587Z,5.67
2019-03-13T07:29:15.304Z,4.63
2019-03-13T07:34:55.842Z,5.40
2019-03-13T07:39:55.922Z,5.97
2019-03-13T07:45:29.155Z,5.67
2019-03-13T07:50:56.284Z,5.43
2019-03-13T07:56:23.353Z,5.20
2019-03-13T08:02:20.884Z,6.27
2019-03-13T08:07:51.522Z,4.87
2019-03-13T08:13:30.539Z,5.23
2019-03-13T08:19:12.715Z,6.20
2019-03-13T08:24:35.945Z,6.23
2019-03-13T08:30:26.463Z,6.67
2019-03-13T08:41:34.623Z,5.20
2019-03-13T08:47:05.194Z,5.57
2019-03-13T08:52:29.815Z,7.00
2019-03-13T08:58:26.190Z,6.37
2019-03-13T09:04:12.915Z,7.73
2019-03-13T09:09:46.395Z,6.27
2019-03-13T09:14:57.029Z,6.13
2019-03-13T09:20:18.766Z,5.80
2019-03-13T09:25:54.027Z,6.37
2019-03-13T09:31:20.944Z,6.43
2019-03-13T09:36:46.397Z,5.40
2019-03-13T09:42:05.345Z,5.50
2019-03-13T09:47:36.934Z,6.20
2019-03-13T09:53:11.317Z,5.50
2019-03-13T09:59:05.623Z,5.10
2019-03-13T10:04:50.622Z,5.53
2019-03-13T10:09:44.833Z,6.67
2019-03-13T10:15:23.747Z,6.63
2019-03-13T10:20:40.221Z,5.80
2019-03-13T10:26:18.173Z,6.27
2019-03-13T10:31:46.646Z,5.93
2019-03-13T10:37:03.732Z,6.13
2019-03-13T10:42:29.206Z,5.37
2019-03-13T10:47:47.730Z,4.43
2019-03-13T10:53:21.235Z,4.77
2019-03-13T10:59:06.476Z,6.07
2019-03-13T11:04:48.810Z,5.40
2019-03-13T11:10:27.391Z,4.33
2019-03-13T11:15:39.837Z,4.70
2019-03-13T11:20:59.336Z,5.17
2019-03-13T11:26:33.010Z,5.23
2019-03-13T11:32:02.641Z,4.63
2019-03-13T11:37:23.154Z,4.87
2019-03-13T11:42:54.872Z,4.87
2019-03-13T11:48:38.185Z,5.20
2019-03-13T11:54:32.553Z,4.23
2019-03-13T11:59:34.809Z,3.57
2019-03-13T12:05:21.111Z,5.00
2019-03-13T12:11:10.109Z,4.87
2019-03-13T12:16:37.008Z,4.07
2019-03-13T12:22:09.672Z,4.43
2019-03-13T12:27:53.436Z,5.37
2019-03-13T12:33:24.671Z,5.03
2019-03-13T12:39:02.999Z,4.60
2019-03-13T12:44:51.498Z,5.10
2019-03-13T12:50:24.133Z,5.50
2019-03-13T12:55:51.872Z,6.00
2019-03-13T13:01:36.800Z,3.50
2019-03-13T13:07:25.709Z,4.20
2019-03-13T13:12:55.422Z,4.27
2019-03-13T13:18:28.725Z,4.00
2019-03-13T13:24:06.356Z,3.97
2019-03-13T13:28:56.346Z,2.53
2019-03-13T13:34:36.155Z,3.23
2019-03-13T13:39:45.772Z,2.73
2019-03-13T13:44:58.246Z,3.97
2019-03-13T13:50:08.638Z,3.47
2019-03-13T13:55:19.561Z,3.57
2019-03-13T14:00:30.498Z,3.70
2019-03-13T14:05:43.206Z,3.60
2019-03-13T14:10:54.088Z,4.23
2019-03-13T14:16:08.073Z,3.60
2019-03-13T14:21:14.924Z,3.87
2019-03-13T14:26:24.690Z,3.27
2019-03-13T14:31:38.166Z,2.47
2019-03-13T14:36:50.872Z,2.50
2019-03-13T14:42:04.266Z,2.90
2019-03-13T14:47:11.436Z,2.67
2019-03-13T14:52:25.008Z,2.10
2019-03-13T14:57:33.830Z,2.33
2019-03-13T15:02:45.540Z,2.83
2019-03-13T15:08:01.111Z,3.40
2019-03-13T15:13:13.642Z,2.93
2019-03-13T15:18:24.422Z,3.40
2019-03-13T15:23:32.249Z,2.93
2019-03-13T15:28:43.085Z,3.23
2019-03-13T15:33:50.623Z,3.87
2019-03-13T15:39:04.074Z,3.67
2019-03-13T15:44:15.208Z,3.30
2019-03-13T15:49:28.256Z,3.57
2019-03-13T15:54:35.804Z,3.93
2019-03-13T15:59:49.197Z,3.97
2019-03-13T16:05:02.667Z,3.30
2019-03-13T16:10:16.744Z,3.80
2019-03-13T16:15:26.576Z,3.77
2019-03-13T16:20:39.172Z,3.97
2019-03-13T16:25:53.747Z,3.23
2019-03-13T16:31:04.484Z,4.50
2019-03-13T16:36:17.039Z,4.00
2019-03-13T16:41:26.927Z,3.57
2019-03-13T16:46:38.636Z,3.53
2019-03-13T16:51:47.678Z,3.97
2019-03-13T16:56:57.543Z,4.00
2019-03-13T17:02:08.482Z,3.20
2019-03-13T17:07:19.273Z,3.20
2019-03-13T17:12:47.885Z,3.73
2019-03-13T17:18:16.568Z,3.50
2019-03-13T17:23:23.954Z,2.67
2019-03-13T17:28:32.934Z,3.23
2019-03-13T17:33:45.415Z,3.10
2019-03-13T17:39:02.984Z,3.40
2019-03-13T17:44:18.340Z,3.37
2019-03-13T17:49:30.862Z,3.83
2019-03-13T17:54:38.231Z,3.40
2019-03-13T17:59:47.998Z,3.20
2019-03-13T18:05:01.351Z,2.80
2019-03-13T18:10:14.129Z,3.17
2019-03-13T18:15:25.857Z,2.93
2019-03-13T18:20:38.550Z,3.63
2019-03-13T18:25:51.291Z,3.20
2019-03-13T18:31:01.835Z,3.60
2019-03-13T18:36:14.035Z,3.05
2019-03-13T18:41:26.927Z,2.97
2019-03-13T18:46:42.217Z,3.70
2019-03-13T18:51:56.556Z,4.77
2019-03-13T18:57:10.031Z,3.00
2019-03-13T19:03:14.724Z,4.30
2019-03-13T19:08:26.993Z,4.73
2019-03-13T19:13:39.019Z,5.13
2019-03-13T19:18:53.480Z,3.93
2019-03-13T19:24:07.014Z,3.33
2019-03-13T19:29:19.593Z,4.58
2019-03-13T19:34:30.415Z,3.80
2019-03-13T19:39:42.021Z,4.47
2019-03-13T19:44:58.629Z,4.63
2019-03-13T19:50:08.502Z,4.97
2019-03-13T19:55:18.441Z,3.80
2019-03-13T20:00:28.315Z,3.40
2019-03-13T20:05:45.279Z,4.57
2019-03-13T20:10:47.112Z,3.90
2019-03-13T20:15:54.970Z,4.20
2019-03-13T20:21:05.766Z,3.80
2019-03-13T20:26:19.272Z,4.67
2019-03-13T20:31:28.682Z,4.57
2019-03-13T20:36:42.084Z,4.73
2019-03-13T20:42:32.774Z,4.27
2019-03-13T20:47:46.216Z,3.87
2019-03-13T20:52:57.060Z,4.27
2019-03-13T20:58:29.129Z,3.83
2019-03-13T21:04:03.126Z,3.90
2019-03-13T21:09:02.764Z,4.20
2019-03-13T21:14:07.112Z,4.60
2019-03-13T21:19:10.737Z,3.80
2019-03-13T21:24:28.350Z,3.60
2019-03-13T21:29:34.380Z,3.33
2019-03-13T21:34:46.612Z,2.90
2019-03-13T21:39:59.686Z,4.13
2019-03-13T21:45:20.981Z,3.70
2019-03-13T21:50:19.780Z,3.40
2019-03-13T21:55:30.314Z,3.27
2019-03-13T22:00:39.888Z,4.80
2019-03-13T22:05:49.479Z,3.83
2019-03-13T22:11:07.310Z,3.83
2019-03-13T22:16:12.368Z,3.43
2019-03-13T22:21:36.721Z,4.87
2019-03-13T22:27:15.300Z,3.47
2019-03-13T22:32:19.191Z,2.80
2019-03-13T22:37:29.960Z,3.20
2019-03-13T22:43:15.144Z,3.47
2019-03-13T22:47:59.024Z,4.17
2019-03-13T22:53:03.025Z,3.92
2019-03-13T22:58:11.338Z,4.03
2019-03-13T23:03:29.978Z,4.55
2019-03-13T23:08:53.589Z,4.87
2019-03-13T23:14:01.895Z,5.70
2019-03-13T23:19:17.359Z,4.67
2019-03-13T23:24:41.163Z,4.37
2019-03-13T23:29:59.593Z,4.93
2019-03-13T23:35:11.861Z,5.20
2019-03-13T23:40:41.600Z,4.83
2019-03-13T23:51:40.697Z,4.60
2019-03-13T23:57:01.564Z,4.50
